Time;durP1;ratioP1;P1;durP2;ratioP2;P2;SDS_P1;SDS_P2;PMS_P1;PMS_P2;Temp;Humidity;BMP_temperature;BMP_pressure;BME280_temperature;BME280_humidity;BME280_pressure;Samples;Min_cycle;Max_cycle;Signal;HPM_P1;HPM_P2
2023/04/08 00:00:46;;;;;;;8.75;6.88;;;4.90;99.90;;;;;;5065420;28;20077;-82
2023/04/08 00:03:11;;;;;;;9.35;6.60;;;4.90;99.90;;;;;;5064550;28;20062;-83
2023/04/08 00:05:37;;;;;;;9.75;7.22;;;4.80;99.90;;;;;;5069043;28;20129;-83
2023/04/08 00:08:03;;;;;;;12.00;7.07;;;4.80;99.90;;;;;;5069068;28;20444;-82
2023/04/08 00:10:28;;;;;;;8.35;6.90;;;4.80;99.90;;;;;;5067868;28;20052;-82
2023/04/08 00:12:54;;;;;;;10.75;7.05;;;4.80;99.90;;;;;;5060731;28;20136;-83
2023/04/08 00:15:20;;;;;;;9.93;7.30;;;4.80;99.90;;;;;;5064381;28;20040;-83
2023/04/08 00:17:45;;;;;;;9.40;7.18;;;4.80;99.90;;;;;;5064291;28;20619;-82
2023/04/08 00:20:11;;;;;;;9.77;7.90;;;4.70;99.90;;;;;;5064509;28;20044;-83
2023/04/08 00:22:36;;;;;;;10.05;7.20;;;4.70;99.90;;;;;;5067894;28;20040;-82
2023/04/08 00:25:05;;;;;;;14.43;8.57;;;4.70;99.90;;;;;;5072374;28;20128;-83
2023/04/08 00:27:31;;;;;;;11.15;7.38;;;4.70;99.90;;;;;;5070380;28;20040;-83
2023/04/08 00:29:58;;;;;;;10.90;7.43;;;4.70;99.90;;;;;;5063620;28;20052;-83
2023/04/08 00:32:24;;;;;;;11.30;7.97;;;4.60;99.90;;;;;;5059162;28;20052;-82
2023/04/08 00:34:50;;;;;;;12.73;8.60;;;4.60;99.90;;;;;;5059174;28;20045;-84
2023/04/08 00:37:16;;;;;;;10.77;8.07;;;4.60;99.90;;;;;;5069956;28;20036;-82
2023/04/08 00:39:42;;;;;;;12.00;8.07;;;4.60;99.90;;;;;;5070495;28;20517;-83
2023/04/08 00:42:08;;;;;;;12.50;8.70;;;4.50;99.90;;;;;;5072692;28;20094;-83
2023/04/08 00:44:34;;;;;;;12.20;8.40;;;4.50;99.90;;;;;;5068353;28;20122;-83
2023/04/08 00:46:59;;;;;;;13.23;8.77;;;4.50;99.90;;;;;;5064991;28;20065;-81
2023/04/08 00:49:25;;;;;;;11.07;8.30;;;4.50;99.90;;;;;;5065249;28;20503;-84
2023/04/08 00:51:52;;;;;;;13.13;8.23;;;4.40;99.90;;;;;;5044975;28;20044;-82
2023/04/08 00:54:17;;;;;;;12.65;8.75;;;4.40;99.90;;;;;;5067112;28;20059;-82
2023/04/08 00:56:44;;;;;;;11.40;8.30;;;4.40;99.90;;;;;;5059498;28;20045;-83
2023/04/08 00:59:10;;;;;;;10.60;7.90;;;4.40;99.90;;;;;;5062858;28;20422;-83
2023/04/08 01:01:35;;;;;;;13.57;8.52;;;4.40;99.90;;;;;;5066284;28;20032;-83
2023/04/08 01:04:12;;;;;;;12.10;8.68;;;4.30;99.90;;;;;;5070379;28;20036;-83
2023/04/08 01:06:45;;;;;;;11.23;8.18;;;4.30;99.90;;;;;;5065187;28;20040;-83
2023/04/08 01:09:12;;;;;;;13.98;8.70;;;4.30;99.90;;;;;;5070059;28;20090;-83
2023/04/08 01:11:43;;;;;;;11.93;8.27;;;4.20;99.90;;;;;;5068367;28;20051;-83
2023/04/08 01:14:10;;;;;;;12.65;8.68;;;4.20;99.90;;;;;;5062921;28;20134;-83
2023/04/08 01:16:39;;;;;;;11.45;8.45;;;4.20;99.90;;;;;;5060725;28;20037;-82
2023/04/08 01:19:07;;;;;;;12.27;8.80;;;4.20;99.90;;;;;;5064322;28;20040;-83
2023/04/08 01:21:36;;;;;;;12.10;8.63;;;4.20;99.90;;;;;;5052569;28;20120;-83
2023/04/08 01:24:10;;;;;;;11.57;8.30;;;4.20;99.90;;;;;;5068696;28;20048;-84
2023/04/08 01:26:36;;;;;;;15.13;9.38;;;4.10;99.90;;;;;;5067685;28;20032;-82
2023/04/08 01:29:02;;;;;;;13.20;9.35;;;4.10;99.90;;;;;;5069046;28;20047;-83
2023/04/08 01:31:30;;;;;;;13.60;8.75;;;4.10;99.90;;;;;;5063136;28;20400;-82
2023/04/08 01:33:58;;;;;;;13.13;9.20;;;4.10;99.90;;;;;;5066336;28;20584;-82
2023/04/08 01:36:25;;;;;;;12.38;9.35;;;4.40;99.90;;;;;;5060715;28;20134;-82
2023/04/08 01:38:51;;;;;;;14.32;9.05;;;4.00;99.90;;;;;;5070882;28;20028;-82
2023/04/08 01:41:18;;;;;;;13.95;9.38;;;4.00;99.90;;;;;;5066134;28;20119;-82
2023/04/08 01:43:45;;;;;;;14.20;10.25;;;4.00;99.90;;;;;;5070817;28;20090;-83
2023/04/08 01:46:12;;;;;;;12.85;9.20;;;4.00;99.90;;;;;;5067116;28;20032;-82
2023/04/08 01:48:39;;;;;;;13.55;9.75;;;4.00;99.90;;;;;;5069456;28;20305;-82
2023/04/08 01:51:05;;;;;;;13.85;9.60;;;4.00;99.90;;;;;;5068362;28;20505;-82
2023/04/08 01:53:32;;;;;;;15.77;10.68;;;4.00;99.90;;;;;;5062567;28;20044;-82
2023/04/08 01:56:06;;;;;;;15.60;10.65;;;3.90;99.90;;;;;;5067302;28;20059;-82
2023/04/08 01:58:38;;;;;;;;;;;3.90;99.90;;;;;;5073208;28;20079;-83
2023/04/08 02:01:09;;;;;;;15.07;10.13;;;3.90;99.90;;;;;;5067126;28;20011;-82
2023/04/08 02:03:35;;;;;;;15.45;10.75;;;3.80;99.90;;;;;;5067868;28;20509;-82
2023/04/08 02:06:00;;;;;;;14.80;10.88;;;3.80;99.90;;;;;;5070982;28;20036;-83
2023/04/08 02:08:26;;;;;;;14.77;10.77;;;3.90;99.90;;;;;;5067034;28;20063;-82
2023/04/08 02:10:51;;;;;;;17.23;11.50;;;3.80;99.90;;;;;;5072921;28;20044;-83
2023/04/08 02:13:17;;;;;;;16.13;11.18;;;3.80;99.90;;;;;;5071173;28;20484;-83
2023/04/08 02:15:50;;;;;;;16.25;10.90;;;3.70;99.90;;;;;;5068296;28;20098;-83
2023/04/08 02:18:24;;;;;;;15.73;11.43;;;3.80;99.90;;;;;;5066798;28;20122;-83
2023/04/08 02:21:00;;;;;;;16.15;11.90;;;3.70;99.90;;;;;;5073892;28;20533;-83
2023/04/08 02:23:28;;;;;;;16.58;11.45;;;3.70;99.90;;;;;;5044636;28;20044;-83
2023/04/08 02:25:55;;;;;;;16.52;12.13;;;3.70;99.90;;;;;;5069315;28;20052;-83
2023/04/08 02:28:22;;;;;;;18.13;12.18;;;3.80;99.90;;;;;;5070065;28;20103;-83
2023/04/08 02:30:50;;;;;;;17.70;12.50;;;3.70;99.90;;;;;;5074231;28;20052;-83
2023/04/08 02:33:21;;;;;;;15.13;11.30;;;3.70;99.90;;;;;;5067531;28;20071;-83
2023/04/08 02:35:49;;;;;;;19.33;13.45;;;3.70;99.90;;;;;;5052140;28;20044;-83
2023/04/08 02:38:15;;;;;;;16.63;12.02;;;3.80;99.90;;;;;;5075582;28;20043;-82
2023/04/08 02:40:41;;;;;;;16.15;11.88;;;3.80;99.90;;;;;;5069961;28;20028;-83
2023/04/08 02:43:06;;;;;;;16.55;12.07;;;3.60;99.90;;;;;;5071440;28;20094;-83
2023/04/08 02:45:40;;;;;;;17.05;12.48;;;3.60;99.90;;;;;;5061587;28;20040;-82
2023/04/08 02:48:06;;;;;;;;;;;3.60;99.90;;;;;;5071929;28;20040;-83
2023/04/08 02:50:31;;;;;;;17.73;11.80;;;3.60;99.90;;;;;;5068531;28;20426;-83
2023/04/08 02:52:57;;;;;;;20.20;12.75;;;3.50;99.90;;;;;;5067186;28;20079;-83
2023/04/08 02:55:22;;;;;;;17.52;12.02;;;3.50;99.90;;;;;;5063351;28;20501;-83
2023/04/08 02:57:48;;;;;;;17.83;11.68;;;3.70;99.90;;;;;;5069422;28;20548;-82
2023/04/08 03:00:14;;;;;;;19.20;11.88;;;3.60;99.90;;;;;;5070699;28;20399;-82
2023/04/08 03:02:40;;;;;;;18.20;12.15;;;3.50;99.90;;;;;;5070979;28;20107;-82
2023/04/08 03:05:06;;;;;;;18.33;11.90;;;3.60;99.90;;;;;;5068217;28;20501;-83
2023/04/08 03:07:32;;;;;;;17.27;11.80;;;3.40;99.90;;;;;;5065032;28;20488;-83
2023/04/08 03:09:58;;;;;;;17.15;12.00;;;3.40;99.90;;;;;;5065449;28;20135;-82
2023/04/08 03:12:23;;;;;;;18.05;12.02;;;3.50;99.90;;;;;;5058356;28;20032;-83
2023/04/08 03:14:49;;;;;;;18.77;13.02;;;3.20;99.90;;;;;;5066646;28;20045;-82
2023/04/08 03:17:16;;;;;;;16.83;11.27;;;3.60;99.90;;;;;;5067129;28;20115;-82
2023/04/08 03:19:44;;;;;;;18.40;12.30;;;3.50;99.90;;;;;;5071855;28;20055;-82
2023/04/08 03:22:09;;;;;;;18.48;11.68;;;3.50;99.90;;;;;;5063028;28;20071;-82
2023/04/08 03:24:36;;;;;;;18.77;12.65;;;3.00;99.90;;;;;;5070901;28;20468;-82
2023/04/08 03:27:02;;;;;;;17.38;11.30;;;3.40;99.90;;;;;;5066517;28;20099;-82
2023/04/08 03:29:27;;;;;;;17.48;11.48;;;3.50;99.90;;;;;;5051211;28;20040;-83
2023/04/08 03:31:53;;;;;;;17.02;12.15;;;3.50;99.90;;;;;;5064709;28;20096;-82
2023/04/08 03:34:19;;;;;;;17.25;12.10;;;3.40;99.90;;;;;;5064749;28;20040;-82
2023/04/08 03:36:44;;;;;;;18.27;12.57;;;3.00;99.90;;;;;;5070205;28;20032;-82
2023/04/08 03:39:10;;;;;;;17.38;12.23;;;3.50;99.90;;;;;;5072669;28;20028;-83
2023/04/08 03:41:35;;;;;;;20.30;13.02;;;2.90;99.90;;;;;;5068737;28;20083;-82
2023/04/08 03:44:01;;;;;;;18.17;12.77;;;3.10;99.90;;;;;;5072145;28;20131;-82
2023/04/08 03:46:27;;;;;;;21.30;13.70;;;3.40;99.90;;;;;;5069522;28;20115;-83
2023/04/08 03:48:52;;;;;;;19.50;13.82;;;2.90;99.90;;;;;;5069614;28;20043;-82
2023/04/08 03:51:18;;;;;;;20.38;13.85;;;3.40;99.90;;;;;;5061696;28;20060;-82
2023/04/08 03:53:43;;;;;;;17.67;13.25;;;2.90;99.90;;;;;;5059943;28;20032;-82
2023/04/08 03:56:09;;;;;;;19.92;13.27;;;3.30;99.90;;;;;;5066308;28;20094;-82
2023/04/08 03:58:35;;;;;;;18.83;12.90;;;3.10;99.90;;;;;;5068353;28;20491;-82
2023/04/08 04:01:00;;;;;;;20.45;13.70;;;2.90;99.90;;;;;;5066278;28;20105;-81
2023/04/08 04:03:26;;;;;;;20.45;13.48;;;2.80;99.90;;;;;;5052940;28;20032;-82
2023/04/08 04:05:52;;;;;;;21.55;14.70;;;2.80;99.90;;;;;;5070447;28;20059;-81
2023/04/08 04:08:17;;;;;;;22.10;14.88;;;2.80;99.90;;;;;;5065184;28;20036;-82
2023/04/08 04:10:43;;;;;;;22.65;15.10;;;2.90;99.90;;;;;;5064279;28;20044;-82
2023/04/08 04:13:08;;;;;;;20.33;13.45;;;2.80;99.90;;;;;;5062208;28;20114;-82
2023/04/08 04:15:38;;;;;;;18.10;13.20;;;2.80;99.90;;;;;;5070275;28;20068;-83
2023/04/08 04:18:04;;;;;;;19.20;13.25;;;3.20;99.90;;;;;;5066859;28;20048;-82
2023/04/08 04:20:30;;;;;;;21.80;13.75;;;2.60;99.90;;;;;;5068514;28;20068;-83
2023/04/08 04:22:56;;;;;;;20.02;13.13;;;2.60;99.90;;;;;;5061074;28;20068;-81
2023/04/08 04:25:22;;;;;;;20.02;13.32;;;2.50;99.90;;;;;;5063743;28;20040;-81
2023/04/08 04:27:47;;;;;;;19.60;13.65;;;2.50;99.90;;;;;;5062110;28;20555;-81
2023/04/08 04:30:14;;;;;;;20.58;14.38;;;2.50;99.90;;;;;;5053560;28;20064;-81
2023/04/08 04:32:43;;;;;;;19.73;13.65;;;3.00;99.90;;;;;;5065547;28;20052;-81
2023/04/08 04:35:12;;;;;;;22.05;13.88;;;2.40;99.90;;;;;;5061162;28;20040;-82
2023/04/08 04:37:38;;;;;;;19.60;13.20;;;2.30;99.90;;;;;;5060901;28;20044;-81
2023/04/08 04:40:04;;;;;;;20.52;13.60;;;2.80;99.90;;;;;;5046001;28;20626;-82
2023/04/08 04:42:30;;;;;;;20.38;13.85;;;2.30;99.90;;;;;;5057480;28;20431;-81
2023/04/08 04:44:56;;;;;;;18.35;12.50;;;2.20;99.90;;;;;;5056941;28;20047;-81
2023/04/08 04:47:22;;;;;;;20.27;13.20;;;2.50;99.90;;;;;;5057081;28;20561;-81
2023/04/08 04:49:47;;;;;;;20.55;13.68;;;2.40;99.90;;;;;;5062396;28;20500;-82
2023/04/08 04:52:13;;;;;;;21.48;13.98;;;2.40;99.90;;;;;;5067720;28;20040;-82
2023/04/08 04:54:39;;;;;;;21.00;14.00;;;2.40;99.90;;;;;;5067202;28;20090;-82
2023/04/08 04:57:04;;;;;;;20.88;13.80;;;2.10;99.90;;;;;;5064989;28;20132;-82
2023/04/08 04:59:30;;;;;;;24.30;14.63;;;2.20;99.90;;;;;;5060929;28;20120;-82
2023/04/08 05:01:56;;;;;;;22.67;14.90;;;2.10;99.90;;;;;;5060333;28;20074;-82
2023/04/08 05:04:25;;;;;;;23.70;15.82;;;2.20;99.90;;;;;;5063104;28;20044;-81
2023/04/08 05:06:50;;;;;;;23.98;15.30;;;2.20;99.90;;;;;;5057562;28;20479;-82
2023/04/08 05:09:16;;;;;;;23.55;14.57;;;2.40;99.90;;;;;;5065806;28;20064;-81
2023/04/08 05:11:41;;;;;;;22.55;15.05;;;2.20;99.90;;;;;;5063530;28;20108;-82
2023/04/08 05:14:07;;;;;;;21.42;14.55;;;2.30;99.90;;;;;;5068805;28;20056;-83
2023/04/08 05:16:33;;;;;;;22.33;14.20;;;2.30;99.90;;;;;;5060616;28;20044;-81
2023/04/08 05:18:59;;;;;;;20.83;14.52;;;2.30;99.90;;;;;;5071291;28;20048;-81
2023/04/08 05:21:26;;;;;;;21.85;14.10;;;2.30;99.90;;;;;;5075306;28;20092;-80
2023/04/08 05:23:52;;;;;;;24.35;14.48;;;2.80;99.90;;;;;;5068652;28;20136;-81
2023/04/08 05:26:20;;;;;;;21.10;13.98;;;2.40;99.90;;;;;;5073194;28;20040;-82
2023/04/08 05:28:46;;;;;;;21.90;14.65;;;2.40;99.90;;;;;;5072519;28;20063;-82
2023/04/08 05:31:14;;;;;;;23.65;14.73;;;2.40;99.90;;;;;;5071668;28;20083;-81
2023/04/08 05:33:40;;;;;;;20.98;13.45;;;2.50;99.90;;;;;;5062806;28;20045;-82
2023/04/08 05:36:05;;;;;;;20.98;13.88;;;2.40;99.90;;;;;;5071182;28;20048;-81
2023/04/08 05:38:31;;;;;;;21.48;14.68;;;2.50;99.90;;;;;;5067501;28;20658;-81
2023/04/08 05:40:56;;;;;;;23.73;15.02;;;2.40;99.90;;;;;;5067965;28;20049;-81
2023/04/08 05:43:22;;;;;;;22.27;14.00;;;2.40;99.90;;;;;;5072269;28;20039;-81
2023/04/08 05:45:48;;;;;;;26.23;15.77;;;2.30;99.90;;;;;;5061692;28;20694;-82
2023/04/08 05:48:13;;;;;;;22.02;15.10;;;2.30;99.90;;;;;;5060380;28;20048;-81
2023/04/08 05:50:39;;;;;;;24.70;15.32;;;2.30;99.90;;;;;;5068303;28;20098;-81
2023/04/08 05:53:04;;;;;;;23.83;15.05;;;2.30;99.90;;;;;;5062693;28;20048;-82
2023/04/08 05:55:30;;;;;;;25.17;16.17;;;2.40;99.90;;;;;;5063113;28;20045;-82
2023/04/08 05:57:55;;;;;;;26.63;16.55;;;2.50;99.90;;;;;;5064636;28;20040;-81
2023/04/08 06:00:21;;;;;;;26.52;16.52;;;3.20;99.90;;;;;;5075447;28;20074;-81
2023/04/08 06:02:47;;;;;;;26.38;16.50;;;2.70;99.90;;;;;;5067940;28;20485;-81
2023/04/08 06:05:12;;;;;;;23.15;15.13;;;3.30;99.90;;;;;;5074678;28;20044;-82
2023/04/08 06:07:38;;;;;;;22.92;15.38;;;3.60;99.90;;;;;;5066776;28;20033;-81
2023/04/08 06:10:05;;;;;;;24.13;15.38;;;3.50;99.90;;;;;;5074642;28;20049;-81
2023/04/08 06:12:35;;;;;;;25.33;15.18;;;3.30;99.90;;;;;;5072144;28;20389;-80
2023/04/08 06:15:00;;;;;;;26.17;16.27;;;3.40;99.90;;;;;;5060258;28;20041;-81
2023/04/08 06:17:26;;;;;;;22.80;14.32;;;3.60;99.90;;;;;;5045659;28;20094;-81
2023/04/08 06:19:51;;;;;;;23.75;15.85;;;3.80;99.90;;;;;;5064416;28;20052;-82
2023/04/08 06:22:17;;;;;;;25.67;17.08;;;4.00;99.90;;;;;;5067082;28;20048;-82
2023/04/08 06:24:42;;;;;;;30.73;18.45;;;4.20;99.90;;;;;;5074190;28;20043;-82
2023/04/08 06:27:08;;;;;;;33.30;19.15;;;4.30;99.90;;;;;;5074865;28;20039;-81
2023/04/08 06:29:33;;;;;;;34.60;20.17;;;4.60;99.90;;;;;;5060742;28;20045;-83
2023/04/08 06:31:59;;;;;;;35.05;21.33;;;4.80;99.90;;;;;;5053750;28;20074;-82
2023/04/08 06:34:24;;;;;;;33.83;20.10;;;5.10;99.90;;;;;;5055740;28;20115;-82
2023/04/08 06:36:50;;;;;;;30.08;18.90;;;5.40;99.90;;;;;;5054373;28;20052;-83
2023/04/08 06:39:16;;;;;;;28.20;19.35;;;5.70;99.90;;;;;;5054592;28;20045;-81
2023/04/08 06:41:42;;;;;;;27.92;18.08;;;5.80;99.90;;;;;;5059394;28;20040;-83
2023/04/08 06:44:08;;;;;;;28.17;17.45;;;5.90;99.90;;;;;;5074402;28;20049;-82
2023/04/08 06:46:33;;;;;;;28.13;17.58;;;5.90;99.90;;;;;;5063787;28;20123;-84
2023/04/08 06:48:59;;;;;;;25.67;17.90;;;5.90;99.90;;;;;;5069463;28;20418;-82
2023/04/08 06:51:24;;;;;;;26.20;17.02;;;5.90;99.90;;;;;;5065516;28;20488;-82
2023/04/08 06:53:50;;;;;;;24.02;16.92;;;5.80;99.90;;;;;;5072068;28;20045;-82
2023/04/08 06:56:16;;;;;;;22.50;15.60;;;5.70;99.90;;;;;;5058785;28;20044;-82
2023/04/08 06:58:41;;;;;;;26.30;16.13;;;5.60;99.90;;;;;;5056693;28;20044;-82
2023/04/08 07:01:07;;;;;;;24.05;15.63;;;5.70;99.90;;;;;;5057837;28;20040;-81
2023/04/08 07:03:32;;;;;;;25.58;15.80;;;5.80;99.90;;;;;;5053911;28;20129;-82
2023/04/08 07:05:58;;;;;;;23.65;15.65;;;5.90;99.90;;;;;;5054089;28;20059;-82
2023/04/08 07:08:23;;;;;;;23.48;15.20;;;6.00;99.90;;;;;;5065606;28;20055;-82
2023/04/08 07:10:51;;;;;;;23.95;15.52;;;6.20;99.90;;;;;;5067931;28;20041;-83
2023/04/08 07:13:17;;;;;;;23.30;15.00;;;6.30;99.90;;;;;;5071801;28;20041;-81
2023/04/08 07:15:42;;;;;;;23.20;15.20;;;6.40;99.90;;;;;;5071599;28;20037;-82
2023/04/08 07:18:08;;;;;;;20.48;13.75;;;6.50;99.90;;;;;;5067583;28;20047;-81
2023/04/08 07:20:37;;;;;;;19.50;13.60;;;6.60;99.90;;;;;;5042544;28;20495;-83
2023/04/08 07:23:02;;;;;;;22.30;14.38;;;6.80;99.90;;;;;;5066843;28;20047;-82
2023/04/08 07:25:28;;;;;;;19.52;13.63;;;7.00;99.90;;;;;;5065478;28;20414;-82
2023/04/08 07:27:54;;;;;;;19.50;13.35;;;7.00;99.90;;;;;;5061082;28;20044;-82
2023/04/08 07:30:19;;;;;;;19.95;13.85;;;7.00;99.90;;;;;;5061700;28;20045;-82
2023/04/08 07:32:45;;;;;;;20.92;14.07;;;7.10;99.90;;;;;;5053566;28;20516;-82
2023/04/08 07:35:11;;;;;;;19.38;13.55;;;7.10;99.90;;;;;;5069819;28;20097;-81
2023/04/08 07:37:37;;;;;;;17.63;12.88;;;7.00;99.90;;;;;;5066135;28;20528;-82
2023/04/08 07:40:02;;;;;;;20.25;13.90;;;6.90;99.90;;;;;;5064524;28;20051;-81
2023/04/08 07:42:28;;;;;;;18.13;13.02;;;6.80;99.90;;;;;;5064934;28;20037;-82
2023/04/08 07:44:53;;;;;;;20.10;13.00;;;6.80;99.90;;;;;;5063729;28;20116;-82
2023/04/08 07:47:19;;;;;;;19.80;13.38;;;6.80;99.90;;;;;;5062506;28;20090;-82
2023/04/08 07:49:45;;;;;;;21.45;13.63;;;6.80;99.90;;;;;;5069572;28;20048;-81
2023/04/08 07:52:11;;;;;;;18.38;13.40;;;7.00;99.90;;;;;;5064327;28;20123;-81
2023/04/08 07:54:37;;;;;;;22.00;13.52;;;7.10;99.90;;;;;;5069116;28;20524;-81
2023/04/08 07:57:02;;;;;;;16.83;12.50;;;7.20;99.90;;;;;;5069278;28;20048;-81
2023/04/08 07:59:28;;;;;;;17.05;12.38;;;7.20;99.90;;;;;;5058526;28;20492;-81
2023/04/08 08:01:54;;;;;;;17.35;11.98;;;7.30;99.90;;;;;;5064782;28;20032;-82
2023/04/08 08:04:20;;;;;;;18.90;13.13;;;7.30;99.90;;;;;;5062054;28;20032;-81
2023/04/08 08:06:46;;;;;;;17.65;12.02;;;7.40;99.90;;;;;;5060894;28;20412;-81
2023/04/08 08:09:12;;;;;;;16.67;11.73;;;7.50;99.90;;;;;;5063400;28;20052;-81
2023/04/08 08:11:38;;;;;;;19.77;12.48;;;7.60;99.90;;;;;;5060697;28;20031;-81
2023/04/08 08:14:04;;;;;;;16.33;11.65;;;7.70;99.90;;;;;;5050892;28;20037;-78
2023/04/08 08:16:30;;;;;;;16.38;11.82;;;8.00;99.90;;;;;;5050120;28;20068;-77
2023/04/08 08:18:56;;;;;;;15.40;11.32;;;8.10;99.90;;;;;;5057169;28;20041;-77
2023/04/08 08:21:22;;;;;;;15.63;11.23;;;8.40;99.90;;;;;;5055688;28;20044;-77
2023/04/08 08:23:48;;;;;;;15.50;11.35;;;8.70;99.90;;;;;;5057839;28;20111;-76
2023/04/08 08:26:13;;;;;;;15.23;10.80;;;8.90;99.90;;;;;;5064413;28;20052;-76
2023/04/08 08:28:39;;;;;;;15.95;12.27;;;8.90;99.90;;;;;;5068240;28;20045;-76
2023/04/08 08:31:05;;;;;;;15.27;11.60;;;8.90;99.90;;;;;;5063875;28;20119;-82
2023/04/08 08:33:31;;;;;;;15.50;11.25;;;9.00;99.90;;;;;;5059165;28;20037;-81
2023/04/08 08:35:57;;;;;;;14.25;11.05;;;9.00;99.90;;;;;;5053972;28;20123;-81
2023/04/08 08:38:23;;;;;;;15.23;10.73;;;9.10;99.90;;;;;;5059293;28;20129;-81
2023/04/08 08:40:59;;;;;;;14.52;10.82;;;9.10;99.90;;;;;;5058818;28;20044;-81
2023/04/08 08:43:26;;;;;;;14.15;11.30;;;9.20;99.90;;;;;;5057091;28;20120;-80
2023/04/08 08:45:52;;;;;;;15.55;10.80;;;9.20;99.90;;;;;;5063275;28;20167;-82
2023/04/08 08:48:17;;;;;;;14.48;10.85;;;9.20;99.90;;;;;;5059917;28;20036;-82
2023/04/08 08:50:43;;;;;;;15.38;11.40;;;9.10;99.90;;;;;;5058528;28;20037;-81
2023/04/08 08:53:09;;;;;;;12.63;9.93;;;9.00;99.90;;;;;;5054830;28;20456;-81
2023/04/08 08:55:34;;;;;;;12.30;9.68;;;9.00;99.90;;;;;;5055266;28;20055;-84
2023/04/08 08:58:01;;;;;;;13.05;10.18;;;9.00;99.90;;;;;;5052474;28;20048;-83
2023/04/08 09:00:35;;;;;;;13.88;10.82;;;9.00;99.90;;;;;;5052096;28;20099;-81
2023/04/08 09:03:18;;;;;;;13.55;10.07;;;9.10;99.90;;;;;;5057416;28;20057;-78
2023/04/08 09:05:51;;;;;;;14.68;10.90;;;8.90;99.90;;;;;;5053074;28;20040;-81
2023/04/08 09:08:33;;;;;;;14.93;10.77;;;8.80;99.90;;;;;;5034011;28;20033;-78
2023/04/08 09:11:20;;;;;;;13.60;10.00;;;8.70;99.90;;;;;;5057850;28;20067;-77
2023/04/08 09:13:46;;;;;;;15.35;11.30;;;8.70;99.90;;;;;;5053215;28;20041;-82
2023/04/08 09:16:16;;;;;;;15.68;11.02;;;8.70;99.90;;;;;;5051261;28;20636;-80
2023/04/08 09:18:43;;;;;;;15.52;11.27;;;8.60;99.90;;;;;;5051818;28;20509;-82
2023/04/08 09:21:10;;;;;;;17.38;11.45;;;8.50;99.90;;;;;;5057931;28;20048;-80
2023/04/08 09:23:43;;;;;;;17.77;12.02;;;8.40;99.90;;;;;;5053769;28;20040;-81
2023/04/08 09:26:14;;;;;;;17.42;12.48;;;8.30;99.90;;;;;;5059165;28;20033;-81
2023/04/08 09:28:41;;;;;;;19.33;13.32;;;8.20;99.90;;;;;;5056498;28;20070;-81
2023/04/08 09:31:20;;;;;;;16.23;12.18;;;8.20;99.90;;;;;;5059518;28;20124;-82
2023/04/08 09:33:48;;;;;;;18.25;12.75;;;8.20;99.90;;;;;;5052844;28;20040;-83
2023/04/08 09:36:15;;;;;;;17.35;12.82;;;8.20;99.90;;;;;;5058702;28;20060;-81
2023/04/08 09:38:41;;;;;;;15.52;12.30;;;8.20;99.90;;;;;;5051477;28;20033;-81
2023/04/08 09:41:07;;;;;;;16.35;11.50;;;8.20;99.90;;;;;;5055135;28;20041;-83
2023/04/08 09:43:40;;;;;;;19.35;11.93;;;8.10;99.90;;;;;;5059452;28;20378;-83
2023/04/08 09:46:10;;;;;;;15.30;11.20;;;8.20;99.90;;;;;;5050129;28;20041;-83
2023/04/08 09:48:41;;;;;;;16.67;11.55;;;8.20;99.90;;;;;;5065105;28;20032;-83
2023/04/08 09:51:11;;;;;;;15.23;11.25;;;8.20;99.90;;;;;;5057516;28;20033;-83
2023/04/08 09:53:40;;;;;;;14.57;11.27;;;8.20;99.90;;;;;;5064886;28;20044;-83
2023/04/08 09:56:11;;;;;;;14.85;10.90;;;8.30;99.90;;;;;;5061560;28;20079;-82
2023/04/08 09:58:48;;;;;;;14.20;9.85;;;8.50;99.90;;;;;;5064159;28;20087;-84
2023/04/08 10:01:14;;;;;;;12.63;8.98;;;8.70;99.90;;;;;;5065698;28;20045;-83
2023/04/08 10:03:48;;;;;;;12.55;9.55;;;8.90;99.90;;;;;;5060895;28;20045;-82
2023/04/08 10:06:15;;;;;;;12.88;9.10;;;9.00;99.90;;;;;;5059755;28;20111;-82
2023/04/08 10:08:42;;;;;;;12.20;9.20;;;9.10;99.90;;;;;;5067887;28;20049;-83
2023/04/08 10:11:08;;;;;;;13.45;9.57;;;9.20;99.90;;;;;;5057228;28;20055;-84
2023/04/08 10:13:34;;;;;;;13.57;9.68;;;9.20;99.90;;;;;;5059551;28;20115;-83
2023/04/08 10:16:29;;;;;;;11.98;8.85;;;9.30;99.90;;;;;;5061878;28;20043;-83
2023/04/08 10:18:55;;;;;;;13.88;9.50;;;9.40;99.90;;;;;;5042338;28;20488;-84
2023/04/08 10:21:49;;;;;;;12.90;8.75;;;9.30;99.90;;;;;;5062598;28;20067;-84
2023/04/08 10:24:15;;;;;;;12.45;8.48;;;9.20;99.90;;;;;;5073619;28;20097;-84
2023/04/08 10:26:42;;;;;;;12.85;9.60;;;9.10;99.90;;;;;;5065236;28;20071;-82
2023/04/08 10:29:17;;;;;;;13.60;8.65;;;9.20;99.90;;;;;;5060682;28;20641;-83
2023/04/08 10:31:49;;;;;;;12.93;8.85;;;9.20;99.90;;;;;;5066027;28;20037;-82
2023/04/08 10:34:16;;;;;;;13.95;8.85;;;9.20;99.90;;;;;;5044020;28;20025;-84
2023/04/08 10:36:43;;;;;;;11.25;8.43;;;9.10;99.90;;;;;;5047598;28;20060;-84
2023/04/08 10:39:09;;;;;;;12.35;8.32;;;9.10;99.90;;;;;;5045781;28;20542;-83
2023/04/08 10:41:40;;;;;;;12.55;8.90;;;9.00;99.90;;;;;;5063140;28;20028;-83
2023/04/08 10:44:15;;;;;;;13.93;10.13;;;9.10;99.90;;;;;;5061894;28;20404;-84
2023/04/08 10:46:40;;;;;;;14.15;9.52;;;9.20;99.90;;;;;;5077797;28;20041;-82
2023/04/08 10:49:07;;;;;;;13.35;9.55;;;9.10;99.90;;;;;;5065904;28;20107;-82
2023/04/08 10:51:36;;;;;;;15.70;10.23;;;9.20;99.90;;;;;;5058247;28;20048;-83
2023/04/08 10:54:15;;;;;;;14.10;10.15;;;9.40;99.90;;;;;;5061228;28;20134;-83
2023/04/08 10:56:52;;;;;;;15.63;10.27;;;9.50;99.90;;;;;;5059740;28;20674;-83
2023/04/08 10:59:28;;;;;;;15.80;10.90;;;9.50;99.90;;;;;;5058075;28;20091;-84
2023/04/08 11:01:54;;;;;;;18.10;12.18;;;9.50;99.90;;;;;;5057761;28;20041;-84
2023/04/08 11:04:22;;;;;;;18.48;11.90;;;9.50;99.90;;;;;;5064839;28;20052;-83
2023/04/08 11:06:48;;;;;;;17.63;12.48;;;9.50;99.90;;;;;;5057627;28;20694;-84
2023/04/08 11:09:15;;;;;;;20.02;12.95;;;9.60;99.90;;;;;;5056460;28;20695;-82
2023/04/08 11:11:42;;;;;;;18.10;12.50;;;9.60;99.90;;;;;;5063862;28;20033;-83
2023/04/08 11:14:08;;;;;;;17.27;11.35;;;9.60;99.90;;;;;;5062911;28;20571;-83
2023/04/08 11:16:35;;;;;;;17.35;11.50;;;9.70;99.90;;;;;;5068677;28;20064;-82
2023/04/08 11:19:04;;;;;;;17.75;11.77;;;9.70;99.90;;;;;;5058988;28;20097;-84
2023/04/08 11:21:37;;;;;;;17.50;12.18;;;9.80;99.90;;;;;;5044492;28;20048;-83
2023/04/08 11:24:08;;;;;;;16.88;11.73;;;9.90;99.90;;;;;;5060480;28;20041;-83
2023/04/08 11:26:35;;;;;;;18.60;12.10;;;9.90;99.90;;;;;;5072286;28;20396;-85
2023/04/08 11:29:01;;;;;;;19.65;11.82;;;10.00;99.90;;;;;;5061550;28;20068;-83
2023/04/08 11:31:27;;;;;;;18.92;12.82;;;10.00;99.90;;;;;;5059297;28;20114;-84
2023/04/08 11:33:56;;;;;;;18.63;11.48;;;10.00;99.90;;;;;;5063834;28;20585;-84
2023/04/08 11:36:22;;;;;;;16.67;11.23;;;10.00;99.90;;;;;;5051118;28;20044;-83
2023/04/08 11:38:47;;;;;;;16.92;11.85;;;10.00;99.90;;;;;;5076960;28;20044;-83
2023/04/08 11:41:14;;;;;;;16.98;11.35;;;10.10;99.90;;;;;;5073199;28;20044;-79
2023/04/08 11:43:50;;;;;;;17.35;11.30;;;10.10;99.90;;;;;;5067533;28;20046;-83
2023/04/08 11:46:16;;;;;;;18.45;11.32;;;10.20;99.90;;;;;;5062865;28;20568;-83
2023/04/08 11:49:06;;;;;;;19.02;12.00;;;10.20;99.90;;;;;;5066427;28;20124;-83
2023/04/08 11:51:33;;;;;;;17.95;12.00;;;10.20;99.90;;;;;;5068204;28;20503;-82
2023/04/08 11:54:01;;;;;;;18.70;12.60;;;10.30;99.90;;;;;;5064337;28;20052;-84
2023/04/08 11:56:27;;;;;;;19.48;12.60;;;10.20;99.90;;;;;;5078942;28;20036;-83
2023/04/08 11:58:53;;;;;;;20.10;13.30;;;10.20;99.90;;;;;;5072283;28;20051;-84
2023/04/08 12:01:20;;;;;;;23.33;14.77;;;10.30;99.90;;;;;;5070371;28;20116;-85
2023/04/08 12:03:57;;;;;;;22.23;14.40;;;10.20;99.90;;;;;;5068946;28;20491;-83
2023/04/08 12:06:23;;;;;;;22.48;14.07;;;10.20;99.90;;;;;;5061422;28;20079;-83
2023/04/08 12:08:49;;;;;;;27.60;15.80;;;10.20;99.90;;;;;;5061915;28;20397;-85
2023/04/08 12:11:15;;;;;;;22.48;13.65;;;10.20;99.90;;;;;;5068136;28;20040;-85
2023/04/08 12:13:41;;;;;;;24.38;14.43;;;10.10;99.90;;;;;;5068991;28;20496;-85
2023/04/08 12:16:07;;;;;;;19.83;13.68;;;10.10;99.90;;;;;;5067925;28;20036;-82
2023/04/08 12:18:32;;;;;;;20.35;12.52;;;10.20;99.90;;;;;;5069959;28;20095;-83
2023/04/08 12:20:58;;;;;;;22.77;13.50;;;10.20;99.90;;;;;;5075601;28;20535;-83
2023/04/08 12:23:23;;;;;;;20.15;12.50;;;10.20;99.90;;;;;;5056092;28;20033;-84
2023/04/08 12:25:49;;;;;;;17.63;12.13;;;10.20;99.90;;;;;;5072460;28;20108;-83
2023/04/08 12:28:14;;;;;;;19.17;12.50;;;10.20;99.90;;;;;;5076028;28;20063;-82
2023/04/08 12:30:40;;;;;;;23.25;13.55;;;10.30;99.90;;;;;;5072524;28;20052;-83
2023/04/08 12:33:06;;;;;;;25.00;14.20;;;10.30;99.90;;;;;;5066135;28;20044;-84
2023/04/08 12:35:31;;;;;;;20.40;13.00;;;10.20;99.90;;;;;;5073713;28;20091;-83
2023/04/08 12:37:57;;;;;;;19.80;13.40;;;10.30;99.90;;;;;;5056245;28;20043;-83